Time;durP1;ratioP1;P1;durP2;ratioP2;P2;SDS_P1;SDS_P2;PMS_P1;PMS_P2;Temp;Humidity;BMP_temperature;BMP_pressure;BME280_temperature;BME280_humidity;BME280_pressure;Samples;Min_cycle;Max_cycle;Signal;HPM_P1;HPM_P2
2022/07/10 00:00:35;;;;;;;6.85;2.58;;;;;;;11.93;100.00;101729.59;5061091;28;20036;-68
2022/07/10 00:03:01;;;;;;;4.82;2.40;;;;;;;11.83;100.00;101712.38;5079056;28;20209;-68
2022/07/10 00:05:26;;;;;;;5.30;2.33;;;;;;;11.82;100.00;101717.72;5070318;28;20100;-68
2022/07/10 00:07:52;;;;;;;6.68;2.30;;;;;;;11.79;100.00;101716.06;5063582;28;20112;-68
2022/07/10 00:10:18;;;;;;;5.07;2.97;;;;;;;11.75;100.00;101714.44;5059391;28;20029;-67
2022/07/10 00:12:45;;;;;;;4.53;2.42;;;;;;;11.71;100.00;101715.44;5090265;28;20027;-67
2022/07/10 00:15:11;;;;;;;6.65;2.78;;;;;;;11.56;100.00;101697.47;5067075;28;20024;-68
2022/07/10 00:17:38;;;;;;;5.35;2.78;;;;;;;11.60;100.00;101715.75;5092992;28;20028;-68
2022/07/10 00:20:04;;;;;;;8.60;2.78;;;;;;;11.44;100.00;101705.78;5065191;28;20509;-68
2022/07/10 00:22:30;;;;;;;4.13;2.20;;;;;;;11.41;100.00;101709.38;5074843;28;20033;-68
2022/07/10 00:24:56;;;;;;;5.45;2.63;;;;;;;11.38;100.00;101720.03;5057662;28;20036;-68
2022/07/10 00:27:23;;;;;;;6.32;2.65;;;;;;;11.36;100.00;101710.44;5090305;28;20031;-68
2022/07/10 00:29:48;;;;;;;5.22;2.75;;;;;;;11.35;100.00;101703.47;5075610;28;20118;-68
2022/07/10 00:32:14;;;;;;;16.60;2.85;;;;;;;11.27;100.00;101694.03;5070281;28;20025;-68
2022/07/10 00:34:39;;;;;;;4.93;2.20;;;;;;;11.18;100.00;101681.19;5056834;28;20233;-68
2022/07/10 00:37:04;;;;;;;6.65;3.28;;;;;;;11.28;100.00;101708.94;5077167;28;20119;-68
2022/07/10 00:39:30;;;;;;;11.60;3.33;;;;;;;11.32;100.00;101703.56;5066931;28;20036;-68
2022/07/10 00:42:06;;;;;;;6.65;2.92;;;;;;;11.27;100.00;101699.31;5074875;28;20039;-68
2022/07/10 00:44:31;;;;;;;7.55;2.60;;;;;;;11.23;100.00;101697.69;5056681;28;20061;-68
2022/07/10 00:46:56;;;;;;;5.70;3.05;;;;;;;11.29;100.00;101700.09;5068385;28;20033;-68
2022/07/10 00:49:22;;;;;;;4.68;2.80;;;;;;;11.27;100.00;101701.06;5074327;28;20056;-68
2022/07/10 00:51:47;;;;;;;7.32;2.80;;;;;;;11.24;100.00;101694.16;5078246;28;20356;-68
2022/07/10 00:54:13;;;;;;;7.13;2.30;;;;;;;11.22;100.00;101698.56;5076494;28;20035;-68
2022/07/10 00:56:38;;;;;;;5.97;2.70;;;;;;;11.22;100.00;101708.28;5063751;28;20032;-69
2022/07/10 00:59:03;;;;;;;9.02;3.05;;;;;;;11.19;100.00;101693.41;5053026;28;20024;-68
2022/07/10 01:01:29;;;;;;;4.93;2.45;;;;;;;11.10;100.00;101677.94;5064747;28;20372;-68
2022/07/10 01:03:54;;;;;;;6.57;2.45;;;;;;;11.14;100.00;101684.81;5066208;28;20035;-68
2022/07/10 01:06:19;;;;;;;10.00;3.28;;;;;;;11.13;100.00;101682.22;5058995;28;20021;-67
2022/07/10 01:08:45;;;;;;;8.82;2.83;;;;;;;10.91;100.00;101653.13;5083178;28;20356;-67
2022/07/10 01:11:11;;;;;;;11.02;2.88;;;;;;;11.08;100.00;101677.13;5080667;28;20447;-67
2022/07/10 01:13:37;;;;;;;4.95;2.67;;;;;;;10.95;100.00;101657.38;5070386;28;20025;-68
2022/07/10 01:16:03;;;;;;;4.63;2.45;;;;;;;10.96;100.00;101660.84;5071902;28;20025;-68
2022/07/10 01:18:28;;;;;;;5.38;2.22;;;;;;;10.92;100.00;101660.09;5089035;28;20445;-68
2022/07/10 01:20:55;;;;;;;4.50;2.40;;;;;;;11.02;100.00;101673.81;5071729;28;20465;-67
2022/07/10 01:23:21;;;;;;;5.95;2.83;;;;;;;11.03;100.00;101665.88;5060309;28;20028;-68
2022/07/10 01:25:47;;;;;;;4.72;2.60;;;;;;;11.09;100.00;101665.69;5069798;28;20021;-68
2022/07/10 01:28:13;;;;;;;12.05;3.47;;;;;;;11.13;100.00;101655.94;5045985;28;20543;-68
2022/07/10 01:30:38;;;;;;;7.35;3.05;;;;;;;11.19;100.00;101645.19;5057928;28;20035;-68
2022/07/10 01:33:03;;;;;;;6.32;3.13;;;;;;;11.28;100.00;101658.94;5074158;28;20066;-68
2022/07/10 01:35:29;;;;;;;7.70;3.25;;;;;;;11.27;100.00;101657.22;5062869;28;20090;-68
2022/07/10 01:37:54;;;;;;;7.80;3.00;;;;;;;10.99;100.00;101600.28;5059750;28;20426;-68
2022/07/10 01:40:19;;;;;;;6.30;3.25;;;;;;;11.23;100.00;101637.16;5066922;28;20028;-68
2022/07/10 01:42:45;;;;;;;6.75;2.65;;;;;;;11.45;100.00;101662.78;5052918;28;20082;-68
2022/07/10 01:45:11;;;;;;;8.07;2.97;;;;;;;11.50;100.00;101664.34;5062425;28;20103;-68
2022/07/10 01:47:36;;;;;;;5.82;2.53;;;;;;;11.48;100.00;101654.78;5057405;28;20115;-68
2022/07/10 01:50:03;;;;;;;5.05;2.67;;;;;;;11.47;100.00;101646.00;5071337;28;20024;-68
2022/07/10 01:52:29;;;;;;;5.63;2.83;;;;;;;11.49;100.00;101649.44;5063666;28;20890;-67
2022/07/10 01:54:54;;;;;;;4.00;2.00;;;;;;;11.49;100.00;101653.88;5067630;28;20138;-67
2022/07/10 01:57:20;;;;;;;8.07;2.60;;;;;;;11.48;100.00;101653.00;5076122;28;20074;-67
2022/07/10 01:59:45;;;;;;;6.80;2.53;;;;;;;11.47;100.00;101642.50;5052114;28;20033;-67
2022/07/10 02:02:11;;;;;;;7.93;2.85;;;;;;;11.47;100.00;101632.84;5069479;28;20029;-67
2022/07/10 02:04:42;;;;;;;4.93;2.58;;;;;;;11.37;100.00;101633.22;5069330;28;20029;-68
2022/07/10 02:07:09;;;;;;;8.13;2.70;;;;;;;11.36;100.00;101639.38;5070118;28;20024;-67
2022/07/10 02:09:35;;;;;;;4.75;2.75;;;;;;;11.31;100.00;101642.19;5072822;28;20028;-67
2022/07/10 02:12:00;;;;;;;6.07;2.85;;;;;;;11.08;100.00;101616.63;5065745;28;20023;-67
2022/07/10 02:14:25;;;;;;;6.55;2.85;;;;;;;11.25;100.00;101640.59;5055346;28;20032;-67
2022/07/10 02:16:51;;;;;;;4.57;2.53;;;;;;;11.25;100.00;101635.34;5084819;28;20040;-68
2022/07/10 02:19:16;;;;;;;7.40;2.97;;;;;;;11.20;100.00;101637.28;5067898;28;20398;-68
2022/07/10 02:21:42;;;;;;;7.22;3.15;;;;;;;11.17;100.00;101629.47;5053264;28;20036;-68
2022/07/10 02:24:07;;;;;;;5.93;2.72;;;;;;;11.23;100.00;101642.44;5071648;28;20484;-68
2022/07/10 02:26:32;;;;;;;5.50;2.70;;;;;;;11.17;100.00;101642.63;5052694;28;20029;-68
2022/07/10 02:28:58;;;;;;;9.57;2.58;;;;;;;11.08;100.00;101623.66;5064968;28;20099;-69
2022/07/10 02:31:23;;;;;;;5.50;2.75;;;;;;;11.09;100.00;101631.50;5063769;28;20036;-68
2022/07/10 02:33:48;;;;;;;5.18;2.42;;;;;;;11.12;100.00;101634.03;5062852;28;20032;-68
2022/07/10 02:36:14;;;;;;;5.10;2.50;;;;;;;11.12;100.00;101639.28;5046840;28;20029;-68
2022/07/10 02:38:39;;;;;;;7.72;2.75;;;;;;;11.02;100.00;101629.97;5067509;28;20028;-68
2022/07/10 02:41:05;;;;;;;5.38;2.92;;;;;;;11.04;100.00;101630.78;5065657;28;20536;-68
2022/07/10 02:43:30;;;;;;;5.65;2.85;;;;;;;10.87;100.00;101603.31;5071783;28;20028;-68
2022/07/10 02:45:55;;;;;;;6.05;2.90;;;;;;;11.06;100.00;101638.63;5069206;28;20356;-68
2022/07/10 02:48:21;;;;;;;5.82;3.08;;;;;;;11.03;100.00;101634.31;5065543;28;20032;-68
2022/07/10 02:50:46;;;;;;;10.10;3.15;;;;;;;10.93;100.00;101617.13;5065943;28;20047;-68
2022/07/10 02:53:11;;;;;;;5.57;2.92;;;;;;;10.96;100.00;101632.78;5077000;28;20382;-68
2022/07/10 02:55:37;;;;;;;6.00;3.05;;;;;;;10.87;100.00;101619.09;5079267;28;20111;-68
2022/07/10 02:58:03;;;;;;;8.48;3.40;;;;;;;10.83;100.00;101620.94;5053460;28;20052;-68
2022/07/10 03:00:29;;;;;;;7.95;3.03;;;;;;;10.58;100.00;101583.19;5082851;28;20155;-68
2022/07/10 03:02:55;;;;;;;9.85;2.72;;;;;;;10.82;100.00;101620.97;5068992;28;20393;-69
2022/07/10 03:05:21;;;;;;;4.93;2.67;;;;;;;10.81;100.00;101641.19;5055617;28;20025;-68
2022/07/10 03:07:46;;;;;;;8.65;3.00;;;;;;;10.69;100.00;101633.66;5078020;28;20462;-67
2022/07/10 03:10:11;;;;;;;8.15;2.95;;;;;;;10.70;100.00;101630.13;5057164;28;20798;-67
2022/07/10 03:12:37;;;;;;;6.90;3.05;;;;;;;10.71;100.00;101623.97;5068360;28;20031;-68
2022/07/10 03:15:04;;;;;;;9.27;3.25;;;;;;;10.65;100.00;101611.00;5051601;28;20029;-68
2022/07/10 03:17:29;;;;;;;5.28;2.50;;;;;;;10.58;100.00;101599.81;5060534;28;20036;-68
2022/07/10 03:19:55;;;;;;;7.68;2.88;;;;;;;10.69;100.00;101625.78;5046422;28;20024;-68
2022/07/10 03:22:20;;;;;;;5.18;2.58;;;;;;;10.70;100.00;101632.75;5047464;28;20033;-69
2022/07/10 03:24:46;;;;;;;6.45;2.72;;;;;;;10.60;100.00;101613.78;5084853;28;20033;-67
2022/07/10 03:27:15;;;;;;;8.70;2.85;;;;;;;10.63;100.00;101621.56;5060268;28;20064;-67
2022/07/10 03:29:41;;;;;;;4.97;2.78;;;;;;;10.62;100.00;101622.47;5054541;28;20468;-68
2022/07/10 03:32:07;;;;;;;4.95;2.50;;;;;;;10.61;100.00;101627.78;5066654;28;20100;-68
2022/07/10 03:34:33;;;;;;;6.97;2.70;;;;;;;10.41;100.00;101594.22;5060154;28;20470;-67
2022/07/10 03:37:00;;;;;;;12.15;3.03;;;;;;;10.69;100.00;101628.41;5066124;28;20112;-68
2022/07/10 03:39:26;;;;;;;5.70;2.35;;;;;;;10.66;100.00;101629.38;5071765;28;20066;-68
2022/07/10 03:41:51;;;;;;;7.57;3.08;;;;;;;10.68;100.00;101621.41;5066597;28;20082;-68
2022/07/10 03:44:17;;;;;;;9.57;3.08;;;;;;;10.72;100.00;101623.03;5079113;28;20020;-68
2022/07/10 03:46:42;;;;;;;11.07;3.42;;;;;;;10.75;100.00;101629.06;5077650;28;20036;-68
2022/07/10 03:49:07;;;;;;;5.88;3.13;;;;;;;10.65;100.00;101619.75;5073518;28;20025;-68
2022/07/10 03:51:33;;;;;;;8.77;3.22;;;;;;;10.71;100.00;101629.22;5077383;28;20025;-68
2022/07/10 03:53:58;;;;;;;7.97;2.70;;;;;;;10.78;100.00;101626.34;5069096;28;20028;-68
2022/07/10 03:59:07;;;;;;;7.32;3.28;;;;;;;10.84;100.00;101627.06;5085664;28;20044;-67
2022/07/10 04:01:33;;;;;;;5.05;2.80;;;;;;;10.87;100.00;101622.59;5078206;28;20029;-67
2022/07/10 04:03:58;;;;;;;7.75;2.63;;;;;;;10.82;100.00;101607.84;5069167;28;20039;-68
2022/07/10 04:06:24;;;;;;;9.90;3.38;;;;;;;10.92;100.00;101617.16;5058893;28;20024;-68
2022/07/10 04:08:49;;;;;;;8.70;3.75;;;;;;;10.86;100.00;101606.84;5058479;28;20120;-67
2022/07/10 04:11:14;;;;;;;6.05;3.00;;;;;;;10.93;100.00;101622.38;5053728;28;20128;-67
2022/07/10 04:13:40;;;;;;;9.32;3.53;;;;;;;10.92;100.00;101619.78;5081569;28;20033;-67
2022/07/10 04:16:05;;;;;;;7.93;3.08;;;;;;;10.93;100.00;101619.75;5055088;28;20054;-68
2022/07/10 04:18:31;;;;;;;7.53;3.00;;;;;;;10.89;100.00;101615.50;5067038;28;20416;-67
2022/07/10 04:20:56;;;;;;;5.60;3.15;;;;;;;10.93;100.00;101627.63;5044174;28;20060;-68
2022/07/10 04:23:21;;;;;;;9.30;3.03;;;;;;;10.80;100.00;101605.28;5058428;28;21051;-68
2022/07/10 04:25:47;;;;;;;7.82;3.50;;;;;;;10.96;100.00;101621.41;5057179;28;20021;-68
2022/07/10 04:28:12;;;;;;;11.52;3.38;;;;;;;10.94;100.00;101613.59;5057692;28;20053;-68
2022/07/10 04:30:37;;;;;;;10.02;2.78;;;;;;;11.03;100.00;101623.81;5048717;28;20032;-68
2022/07/10 04:33:03;;;;;;;9.73;3.30;;;;;;;11.07;100.00;101614.91;5033941;28;20300;-67
2022/07/10 04:35:28;;;;;;;6.35;2.92;;;;;;;11.31;100.00;101628.16;5042237;28;20029;-68
2022/07/10 04:37:53;;;;;;;9.35;2.95;;;;;;;11.47;100.00;101624.09;5058929;28;20429;-68
2022/07/10 04:40:19;;;;;;;12.93;3.97;;;;;;;11.42;100.00;101599.72;5060010;28;20091;-68
2022/07/10 04:42:44;;;;;;;6.93;2.70;;;;;;;11.65;100.00;101620.84;5076760;28;20467;-68
2022/07/10 04:45:10;;;;;;;8.07;2.70;;;;;;;11.81;100.00;101618.53;5062057;28;20027;-68
2022/07/10 04:47:35;;;;;;;8.75;4.03;;;;;;;11.90;100.00;101628.75;5065943;28;20045;-68
2022/07/10 04:50:01;;;;;;;6.32;3.28;;;;;;;11.91;100.00;101614.66;5061893;28;20039;-68
2022/07/10 04:52:26;;;;;;;4.97;2.53;;;;;;;12.07;100.00;101618.44;5077513;28;20383;-68
2022/07/10 04:54:52;;;;;;;6.38;3.38;;;;;;;12.12;100.00;101613.88;5069762;28;20025;-67
2022/07/10 04:57:17;;;;;;;5.30;2.97;;;;;;;12.15;100.00;101616.41;5064735;28;20078;-68
2022/07/10 04:59:42;;;;;;;10.75;3.22;;;;;;;12.20;100.00;101622.38;5084047;28;20035;-67
2022/07/10 05:02:08;;;;;;;6.38;2.47;;;;;;;12.19;100.00;101620.66;5080552;28;20085;-67
2022/07/10 05:04:33;;;;;;;5.25;2.65;;;;;;;12.16;100.00;101616.38;5060732;28;20108;-67
2022/07/10 05:06:59;;;;;;;6.25;3.03;;;;;;;12.22;100.00;101631.94;5074798;28;20043;-67
2022/07/10 05:09:24;;;;;;;7.10;2.95;;;;;;;12.07;100.00;101611.41;5056373;28;20025;-68
2022/07/10 05:11:49;;;;;;;6.30;3.45;;;;;;;12.00;100.00;101615.19;5055224;28;20529;-67
2022/07/10 05:14:16;;;;;;;12.10;3.33;;;;;;;12.16;100.00;101629.53;5055698;28;20036;-68
2022/07/10 05:16:41;;;;;;;12.05;3.10;;;;;;;12.16;100.00;101626.91;5067380;28;20034;-67
2022/07/10 05:19:07;;;;;;;5.80;3.15;;;;;;;12.18;100.00;101634.75;5062904;28;20043;-67
2022/07/10 05:21:32;;;;;;;9.23;3.42;;;;;;;12.12;100.00;101627.94;5058335;28;20154;-67
2022/07/10 05:23:57;;;;;;;6.72;3.25;;;;;;;12.20;100.00;101623.22;5063547;28;20064;-67
2022/07/10 05:26:23;;;;;;;11.23;3.15;;;;;;;12.21;100.00;101609.13;5065830;28;20478;-67
2022/07/10 05:28:48;;;;;;;6.07;2.85;;;;;;;12.30;100.00;101608.78;5044322;28;20063;-67
2022/07/10 05:31:13;;;;;;;6.20;3.13;;;;;;;12.44;100.00;101636.38;5055454;28;20033;-67
2022/07/10 05:33:40;;;;;;;6.60;3.08;;;;;;;12.47;100.00;101628.38;5072161;28;20067;-67
2022/07/10 05:36:06;;;;;;;13.43;3.58;;;;;;;12.49;100.00;101613.34;5075220;28;20107;-67
2022/07/10 05:38:32;;;;;;;6.55;3.13;;;;;;;12.65;100.00;101622.38;5052302;28;20174;-67
2022/07/10 05:40:57;;;;;;;5.10;2.45;;;;;;;12.74;100.00;101629.97;5055019;28;20531;-68
2022/07/10 05:43:23;;;;;;;16.38;3.55;;;;;;;12.81;100.00;101620.84;5072522;28;20040;-67
2022/07/10 05:45:48;;;;;;;7.65;3.17;;;;;;;12.72;100.00;101608.91;5054211;28;20585;-66
2022/07/10 05:48:13;;;;;;;5.47;2.60;;;;;;;12.81;100.00;101616.44;5064032;28;20031;-67
2022/07/10 05:50:39;;;;;;;6.50;2.88;;;;;;;12.91;100.00;101627.47;5036689;28;20143;-69
2022/07/10 05:53:04;;;;;;;6.47;3.00;;;;;;;12.91;100.00;101627.47;5057949;28;20108;-69
2022/07/10 05:55:29;;;;;;;10.70;3.42;;;;;;;12.85;100.00;101638.28;5018077;28;20226;-68
2022/07/10 05:57:55;;;;;;;6.75;3.42;;;;;;;12.95;100.00;101639.63;5049506;28;20143;-67
2022/07/10 06:00:20;;;;;;;8.48;3.05;;;;;;;12.94;100.00;101632.66;5065740;28;20384;-67
2022/07/10 06:02:46;;;;;;;5.35;2.75;;;;;;;13.05;100.00;101637.47;5062631;28;20032;-68
2022/07/10 06:05:11;;;;;;;9.07;3.15;;;;;;;13.11;100.00;101645.22;5068217;28;20025;-67
2022/07/10 06:07:36;;;;;;;6.15;2.53;;;;;;;13.13;100.00;101638.06;5049200;28;20029;-67
2022/07/10 06:10:06;;;;;;;6.40;2.75;;;;;;;13.15;100.00;101626.53;5060291;28;20021;-67
2022/07/10 06:12:31;;;;;;;6.50;2.85;;;;;;;13.14;100.00;101616.06;5056035;28;20028;-67
2022/07/10 06:14:57;;;;;;;10.05;3.35;;;;;;;13.15;100.00;101604.53;5054322;28;20024;-67
2022/07/10 06:17:22;;;;;;;8.55;2.65;;;;;;;13.22;100.00;101596.31;5067024;28;20120;-68
2022/07/10 06:19:48;;;;;;;6.30;3.13;;;;;;;13.40;100.00;101628.16;5067586;28;20016;-67
2022/07/10 06:22:31;;;;;;;10.25;3.03;;;;;;;13.48;100.00;101641.91;5056442;28;20471;-67
2022/07/10 06:25:07;;;;;;;5.90;3.35;;;;;;;13.42;100.00;101615.75;5065493;28;20467;-67
2022/07/10 06:27:33;;;;;;;11.02;3.00;;;;;;;13.59;100.00;101632.59;5061081;28;20028;-67
2022/07/10 06:29:59;;;;;;;8.93;3.15;;;;;;;13.41;100.00;101585.00;5052628;28;20031;-67
2022/07/10 06:32:25;;;;;;;5.10;2.55;;;;;;;13.80;100.00;101636.09;5057532;28;20032;-67
2022/07/10 06:34:51;;;;;;;7.75;3.20;;;;;;;13.80;100.00;101630.81;5067509;28;20121;-68
2022/07/10 06:37:17;;;;;;;6.90;2.65;;;;;;;13.85;100.00;101612.13;5063941;28;20870;-67
2022/07/10 06:39:42;;;;;;;7.03;2.60;;;;;;;14.09;100.00;101638.28;5061478;28;20032;-67
2022/07/10 06:42:08;;;;;;;9.50;2.95;;;;;;;14.12;100.00;101640.81;5051780;28;20028;-68
2022/07/10 06:44:33;;;;;;;6.40;3.03;;;;;;;14.21;100.00;101632.47;5052247;28;20554;-67
2022/07/10 06:49:43;;;;;;;7.82;2.85;;;;;;;14.30;100.00;101632.03;5051925;28;20124;-68
2022/07/10 06:52:09;;;;;;;6.00;2.20;;;;;;;14.41;100.00;101649.22;5045908;28;20025;-68
2022/07/10 06:54:34;;;;;;;6.00;2.20;;;;;;;14.49;100.00;101636.53;5041185;28;20025;-67
2022/07/10 06:57:00;;;;;;;9.68;2.65;;;;;;;14.49;100.00;101639.16;5042768;28;20858;-69
2022/07/10 06:59:25;;;;;;;8.68;3.03;;;;;;;14.50;100.00;101639.06;5047052;28;20032;-67
2022/07/10 07:01:51;;;;;;;6.18;2.15;;;;;;;14.49;100.00;101641.81;5045994;28;20536;-68
2022/07/10 07:04:16;;;;;;;6.43;2.22;;;;;;;14.64;100.00;101649.88;5045945;28;20021;-67
2022/07/10 07:06:41;;;;;;;4.03;1.80;;;;;;;14.77;100.00;101655.44;5032889;28;20029;-67
2022/07/10 07:09:07;;;;;;;12.98;2.28;;;;;;;14.86;100.00;101660.31;5049292;28;20433;-67
2022/07/10 07:11:32;;;;;;;10.98;2.03;;;;;;;15.03;100.00;101647.13;5063178;28;20048;-66
2022/07/10 07:13:57;;;;;;;6.82;2.47;;;;;;;15.11;100.00;101652.03;5035980;28;20871;-67
2022/07/10 07:16:37;;;;;;;3.63;1.65;;;;;;;15.16;100.00;101650.91;5045770;28;20031;-67
2022/07/10 07:19:04;;;;;;;9.32;2.78;;;;;;;15.27;100.00;101661.81;5052374;28;20044;-67
2022/07/10 07:24:14;;;;;;;11.90;3.00;;;;;;;15.23;100.00;101657.59;5026397;28;20883;-67
2022/07/10 07:26:39;;;;;;;5.18;2.65;;;;;;;15.23;100.00;101667.34;5029787;28;20056;-67
2022/07/10 07:29:05;;;;;;;6.93;2.50;;;;;;;15.24;100.00;101658.47;5028114;28;20086;-67
2022/07/10 07:31:30;;;;;;;5.60;1.90;;;;;;;15.39;100.00;101663.00;5024433;28;20040;-67
2022/07/10 07:33:55;;;;;;;6.05;2.13;;;;;;;15.52;100.00;101647.38;5033160;28;20029;-67
2022/07/10 07:36:21;;;;;;;6.30;2.40;;;;;;;15.72;100.00;101660.47;5036205;28;20017;-67
2022/07/10 07:38:46;;;;;;;6.07;2.08;;;;;;;15.70;100.00;101651.75;5036541;28;20028;-67
2022/07/10 07:41:11;;;;;;;5.43;2.08;;;;;;;15.69;100.00;101655.31;5038481;28;20146;-68
2022/07/10 07:43:37;;;;;;;10.25;2.85;;;;;;;15.62;100.00;101648.63;5047604;28;20456;-68
2022/07/10 07:46:02;;;;;;;5.13;2.10;;;;;;;15.58;100.00;101644.44;5025754;28;20088;-68
2022/07/10 07:48:28;;;;;;;4.18;1.92;;;;;;;15.68;100.00;101648.31;5034336;28;20063;-67
2022/07/10 07:50:53;;;;;;;7.95;2.92;;;;;;;15.74;100.00;101621.50;5053845;28;20029;-66
2022/07/10 07:53:18;;;;;;;9.75;2.13;;;;;;;16.01;100.00;101630.66;5041139;28;20378;-67
2022/07/10 07:55:44;;;;;;;8.55;2.50;;;;;;;16.23;100.00;101640.97;5041457;28;20028;-68
2022/07/10 07:58:09;;;;;;;4.85;1.92;;;;;;;16.29;100.00;101638.84;5053073;28;20056;-67
2022/07/10 08:00:34;;;;;;;7.53;2.38;;;;;;;16.31;100.00;101634.31;5029745;28;20028;-67
2022/07/10 08:03:00;;;;;;;9.10;2.22;;;;;;;16.45;100.00;101640.66;5060301;28;20863;-68
2022/07/10 08:05:26;;;;;;;8.27;2.30;;;;;;;16.44;100.00;101649.56;5057009;28;20119;-67
2022/07/10 08:07:56;;;;;;;11.00;2.55;;;;;;;16.43;100.00;101642.53;5063085;28;20032;-67
2022/07/10 08:10:25;;;;;;;7.72;2.65;;;;;;;16.50;100.00;101644.78;5063606;28;20028;-67
2022/07/10 08:12:51;;;;;;;4.70;1.90;;;;;;;16.62;100.00;101653.91;5058189;28;20131;-66
2022/07/10 08:15:23;;;;;;;6.32;2.75;;;;;;;16.60;100.00;101650.47;5059391;28;20028;-66
2022/07/10 08:17:49;;;;;;;15.55;2.88;;;;;;;16.52;100.00;101636.75;5081516;28;20024;-67
2022/07/10 08:20:15;;;;;;;5.68;2.58;;;;;;;16.63;100.00;101647.63;5057506;28;20029;-67
2022/07/10 08:22:41;;;;;;;3.38;1.70;;;;;;;16.61;100.00;101647.75;5055456;28;20106;-67
2022/07/10 08:25:07;;;;;;;6.32;2.20;;;;;;;16.58;100.00;101644.41;5058038;28;20024;-68
2022/07/10 08:27:32;;;;;;;4.45;2.15;;;;;;;16.52;100.00;101639.41;5067540;28;20036;-67
2022/07/10 08:29:58;;;;;;;6.30;2.50;;;;;;;16.49;100.00;101634.25;5068444;28;20040;-67
2022/07/10 08:32:23;;;;;;;7.15;2.95;;;;;;;16.49;100.00;101637.78;5071121;28;20685;-67
2022/07/10 08:34:49;;;;;;;7.22;2.38;;;;;;;16.51;100.00;101635.88;5079520;28;20046;-67
2022/07/10 08:37:15;;;;;;;4.43;2.15;;;;;;;16.49;100.00;101636.91;5061775;28;20430;-68
2022/07/10 08:39:40;;;;;;;8.23;2.67;;;;;;;16.36;100.00;101621.66;5064821;28;20033;-67
2022/07/10 08:42:07;;;;;;;8.65;2.63;;;;;;;16.29;100.00;101625.56;5051565;28;20182;-68
2022/07/10 08:44:33;;;;;;;5.75;2.58;;;;;;;16.40;100.00;101640.03;5050210;28;20040;-67
2022/07/10 08:47:00;;;;;;;7.40;2.45;;;;;;;16.50;100.00;101630.66;5042040;28;20074;-67
2022/07/10 08:49:28;;;;;;;14.75;2.63;;;;;;;16.66;100.00;101627.09;5058704;28;20069;-67
2022/07/10 08:52:02;;;;;;;4.97;2.08;;;;;;;16.87;100.00;101633.00;5040800;28;20067;-67
2022/07/10 08:54:28;;;;;;;;;;;;;;;16.89;100.00;101630.28;5043527;28;20562;-67
2022/07/10 08:56:56;;;;;;;8.75;2.38;;;;;;;16.92;100.00;101630.09;5059882;28;19916;-67
2022/07/10 08:59:22;;;;;;;6.95;2.20;;;;;;;16.98;100.00;101614.66;5047174;28;20021;-68
2022/07/10 09:01:48;;;;;;;7.30;2.35;;;;;;;17.23;100.00;101625.59;5041616;28;20109;-68
2022/07/10 09:04:18;;;;;;;6.55;2.22;;;;;;;17.26;100.00;101629.88;5043647;28;20824;-68
2022/07/10 09:06:44;;;;;;;6.55;3.22;;;;;;;17.30;100.00;101636.72;5055668;28;20036;-67
2022/07/10 09:09:11;;;;;;;12.32;9.13;;;;;;;17.23;100.00;101624.75;5073811;28;20028;-67
2022/07/10 09:11:40;;;;;;;5.63;2.58;;;;;;;17.29;100.00;101609.28;5069054;28;20082;-67
2022/07/10 09:14:10;;;;;;;7.95;2.58;;;;;;;17.59;100.00;101621.75;5071934;28;20076;-67
2022/07/10 09:16:36;;;;;;;7.60;2.47;;;;;;;17.71;100.00;101615.69;5052969;28;20491;-67
2022/07/10 09:19:24;;;;;;;4.35;2.45;;;;;;;17.79;100.00;101619.59;5072224;28;20028;-67
2022/07/10 09:21:51;;;;;;;4.88;2.10;;;;;;;17.84;100.00;101606.03;5063513;28;20028;-69
2022/07/10 09:24:19;;;;;;;6.32;3.15;;;;;;;17.86;100.00;101599.66;5068983;28;20028;-67
2022/07/10 09:26:58;;;;;;;5.35;2.47;;;;;;;17.94;100.00;101620.47;5065950;28;20025;-67
2022/07/10 09:29:23;;;;;;;5.55;1.77;;;;;;;17.73;100.00;101621.78;5051466;28;20029;-67
2022/07/10 09:31:53;;;;;;;6.80;2.55;;;;;;;17.37;100.00;101607.03;5061777;28;20047;-69
2022/07/10 09:34:41;;;;;;;5.85;2.47;;;;;;;17.27;100.00;101610.34;5065327;28;20058;-68
2022/07/10 09:37:24;;;;;;;5.63;2.40;;;;;;;17.26;100.00;101598.84;5062407;28;20032;-67
2022/07/10 09:40:03;;;;;;;10.25;2.28;;;;;;;17.19;100.00;101602.81;5074543;28;20546;-68
2022/07/10 09:42:42;;;;;;;4.03;2.20;;;;;;;17.21;100.00;101616.84;5030491;28;20029;-67
2022/07/10 09:45:17;;;;;;;6.63;2.33;;;;;;;17.02;100.00;101616.22;5043671;28;20059;-68
2022/07/10 09:48:16;;;;;;;12.57;2.20;;;;;;;16.82;100.00;101608.53;5061902;28;20047;-67
2022/07/10 09:50:41;;;;;;;3.80;1.65;;;;;;;16.75;100.00;101607.16;5044170;28;20036;-67
2022/07/10 09:53:09;;;;;;;6.28;3.47;;;;;;;16.73;100.00;101611.69;5056285;28;20025;-67
2022/07/10 09:55:36;;;;;;;7.05;2.08;;;;;;;16.65;100.00;101598.84;5090219;27;20036;-68
2022/07/10 09:58:04;;;;;;;8.23;2.88;;;;;;;16.68;100.00;101617.25;5055143;28;20033;-68
2022/07/10 10:00:31;;;;;;;34.30;22.80;;;;;;;16.64;100.00;101609.53;5051612;28;20028;-68
2022/07/10 10:03:01;;;;;;;7.63;3.85;;;;;;;16.71;100.00;101601.16;5051432;28;20029;-67
2022/07/10 10:05:59;;;;;;;4.78;2.55;;;;;;;16.77;100.00;101600.81;5056101;28;20035;-67
2022/07/10 10:08:27;;;;;;;5.88;4.03;;;;;;;16.87;100.00;101606.44;5102258;28;20021;-67
2022/07/10 10:10:56;;;;;;;9.60;5.07;;;;;;;16.88;100.00;101597.53;5068443;28;20085;-67
2022/07/10 10:13:23;;;;;;;8.85;3.00;;;;;;;16.96;100.00;101603.28;5060278;28;20029;-67
2022/07/10 10:15:52;;;;;;;9.60;3.08;;;;;;;17.04;100.00;101609.00;5060100;28;20052;-67
2022/07/10 10:18:25;;;;;;;6.90;2.47;;;;;;;16.98;100.00;101588.09;5063065;28;20067;-67
2022/07/10 10:20:53;;;;;;;4.38;2.13;;;;;;;17.17;100.00;101599.38;5065933;28;20032;-68
2022/07/10 10:23:21;;;;;;;8.27;3.30;;;;;;;17.20;100.00;101599.19;5065074;28;20535;-67
2022/07/10 10:25:54;;;;;;;5.07;2.10;;;;;;;17.24;100.00;101590.09;5067267;28;20028;-67
2022/07/10 10:28:23;;;;;;;8.98;3.58;;;;;;;17.40;100.00;101597.19;5050208;28;20878;-67
2022/07/10 10:30:51;;;;;;;5.25;2.63;;;;;;;17.52;100.00;101599.09;5023661;28;20147;-68
2022/07/10 10:33:32;;;;;;;6.18;2.38;;;;;;;17.56;100.00;101603.31;5055942;28;20154;-68
2022/07/10 10:35:59;;;;;;;7.68;2.35;;;;;;;17.52;100.00;101604.41;5053197;28;20035;-68
2022/07/10 10:38:24;;;;;;;7.97;2.60;;;;;;;17.31;100.00;101578.16;5049859;28;20077;-68
2022/07/10 10:40:50;;;;;;;7.95;2.65;;;;;;;17.19;100.00;101565.63;5071456;28;20068;-67
2022/07/10 10:43:20;;;;;;;11.10;2.53;;;;;;;17.30;100.00;101595.03;5046827;28;20127;-68
2022/07/10 10:45:48;;;;;;;16.60;10.23;;;;;;;17.32;100.00;101603.78;5040789;28;20033;-67
2022/07/10 10:48:15;;;;;;;40.90;29.35;;;;;;;17.36;100.00;101597.38;5039972;28;20039;-67
2022/07/10 10:50:46;;;;;;;8.45;3.67;;;;;;;17.72;100.00;101612.06;5065742;28;20029;-67
2022/07/10 10:53:17;;;;;;;8.88;2.85;;;;;;;17.91;100.00;101558.63;5049022;28;20786;-68
2022/07/10 10:56:15;;;;;;;10.63;2.33;;;;;;;18.26;100.00;101595.38;5010921;28;20029;-67
2022/07/10 10:58:42;;;;;;;6.68;2.60;;;;;;;18.17;100.00;101597.75;5026584;28;20510;-68
2022/07/10 11:01:20;;;;;;;5.13;1.90;;;;;;;18.16;100.00;101604.03;5048700;28;20028;-67
2022/07/10 11:04:03;;;;;;;5.07;1.90;;;;;;;17.97;100.00;101607.00;5070715;28;20038;-67
2022/07/10 11:06:47;;;;;;;9.02;2.38;;;;;;;17.72;100.00;101602.31;5056489;28;20024;-67
2022/07/10 11:09:30;;;;;;;5.80;2.25;;;;;;;17.49;100.00;101602.78;5040689;28;20021;-68
2022/07/10 11:12:05;;;;;;;5.10;2.40;;;;;;;17.40;100.00;101594.53;5048413;28;20087;-68
2022/07/10 11:14:36;;;;;;;6.22;2.30;;;;;;;17.17;100.00;101551.56;5077983;28;20129;-68
2022/07/10 11:17:01;;;;;;;8.32;3.20;;;;;;;17.50;100.00;101579.75;5094459;28;20081;-67
2022/07/10 11:19:28;;;;;;;8.68;2.35;;;;;;;17.75;100.00;101579.97;5080074;28;20032;-68
2022/07/10 11:22:13;;;;;;;8.68;2.25;;;;;;;18.16;100.00;101575.63;5060289;28;20451;-68
2022/07/10 11:25:11;;;;;;;7.90;2.70;;;;;;;18.52;100.00;101571.63;5060778;28;20111;-67